Time;durP1;ratioP1;P1;durP2;ratioP2;P2;SDS_P1;SDS_P2;PMS_P1;PMS_P2;Temp;Humidity;BMP_temperature;BMP_pressure;BME280_temperature;BME280_humidity;BME280_pressure;Samples;Min_cycle;Max_cycle;Signal;HPM_P1;HPM_P2
2022/12/08 00:02:03;;;;;;;7.60;3.60;;;7.80;45.10;;;;;;4993643;28;20168;-54
2022/12/08 00:09:20;;;;;;;5.30;3.33;;;7.80;45.10;;;;;;4993781;28;20641;-53
2022/12/08 00:09:59;;;;;;;6.50;4.25;;;7.90;45.10;;;;;;4993647;28;20233;-54
2022/12/08 00:12:24;;;;;;;7.00;3.73;;;7.90;45.00;;;;;;4993517;28;20160;-54
2022/12/08 00:14:50;;;;;;;5.63;3.00;;;7.90;45.00;;;;;;4993875;28;20250;-53
2022/12/08 00:17:16;;;;;;;5.53;3.47;;;7.90;45.10;;;;;;4993371;28;20286;-54
2022/12/08 00:19:42;;;;;;;6.55;3.38;;;8.00;45.10;;;;;;4993451;28;20177;-54
2022/12/08 00:22:09;;;;;;;7.00;3.83;;;8.00;45.00;;;;;;4992665;28;20303;-54
2022/12/08 00:24:40;;;;;;;4.35;3.40;;;8.00;45.00;;;;;;4993434;28;20573;-54
2022/12/08 00:27:08;;;;;;;8.10;3.88;;;8.00;44.50;;;;;;4993521;28;20243;-54
2022/12/08 00:29:34;;;;;;;5.70;3.78;;;8.00;44.80;;;;;;4993421;28;20182;-54
2022/12/08 00:32:00;;;;;;;9.07;3.87;;;8.00;45.00;;;;;;4993039;28;20187;-54
2022/12/08 00:34:25;;;;;;;6.13;3.67;;;8.00;44.70;;;;;;4993449;28;20577;-53
2022/12/08 00:36:51;;;;;;;5.70;3.20;;;8.00;44.70;;;;;;4993287;28;20460;-54
2022/12/08 00:39:17;;;;;;;4.63;3.27;;;8.00;44.70;;;;;;4993178;28;20254;-54
2022/12/08 00:44:27;;;;;;;7.40;4.00;;;8.00;44.30;;;;;;4993314;28;20222;-53
2022/12/08 00:46:53;;;;;;;4.57;3.63;;;8.00;44.60;;;;;;4992901;28;20218;-54
2022/12/08 00:49:20;;;;;;;7.80;3.67;;;7.90;44.50;;;;;;4991901;28;20163;-54
2022/12/08 00:51:46;;;;;;;4.93;4.43;;;7.90;44.50;;;;;;4992963;28;20399;-54
2022/12/08 00:54:12;;;;;;;6.32;3.92;;;8.00;44.60;;;;;;4992829;28;20184;-54
2022/12/08 00:56:38;;;;;;;8.98;3.55;;;8.00;44.60;;;;;;4992760;28;20203;-52
2022/12/08 00:59:05;;;;;;;5.77;3.67;;;8.00;44.60;;;;;;4992824;28;20182;-53
2022/12/08 01:01:32;;;;;;;6.20;4.10;;;8.00;44.70;;;;;;4992754;28;20538;-54
2022/12/08 01:04:01;;;;;;;10.23;3.53;;;8.00;44.20;;;;;;4992724;28;20555;-54
2022/12/08 01:06:26;;;;;;;7.95;3.92;;;8.00;44.40;;;;;;4992666;28;20616;-54
2022/12/08 01:08:52;;;;;;;7.30;4.50;;;8.00;44.50;;;;;;4992796;28;20211;-52
2022/12/08 01:11:18;;;;;;;5.47;3.43;;;8.00;44.40;;;;;;4992717;28;20170;-54
2022/12/08 01:13:45;;;;;;;6.10;3.60;;;8.00;44.60;;;;;;4992688;28;20553;-54
2022/12/08 01:16:25;;;;;;;8.48;3.95;;;8.00;44.40;;;;;;4992482;28;20705;-54
2022/12/08 01:18:51;;;;;;;6.45;3.45;;;8.00;44.50;;;;;;4992917;28;20299;-54
2022/12/08 01:21:18;;;;;;;5.33;3.00;;;7.90;44.60;;;;;;4992877;28;20257;-54
2022/12/08 01:23:44;;;;;;;6.25;3.80;;;7.90;44.60;;;;;;4992605;28;20424;-54
2022/12/08 01:26:12;;;;;;;4.32;3.03;;;8.00;44.10;;;;;;4992439;28;20203;-54
2022/12/08 01:28:38;;;;;;;6.70;3.25;;;8.00;44.50;;;;;;4992533;28;20265;-54
2022/12/08 01:31:03;;;;;;;5.22;3.60;;;8.00;44.50;;;;;;4992463;28;20175;-54
2022/12/08 01:33:30;;;;;;;4.63;3.10;;;8.00;44.30;;;;;;4992226;28;20179;-54
2022/12/08 01:36:01;;;;;;;5.75;4.30;;;8.00;44.10;;;;;;4995510;28;20218;-54
2022/12/08 01:38:26;;;;;;;13.48;4.65;;;8.00;44.40;;;;;;4996510;28;20159;-53
2022/12/08 01:40:52;;;;;;;5.00;3.80;;;7.90;44.50;;;;;;4996640;28;20882;-54
2022/12/08 01:43:19;;;;;;;4.53;3.90;;;7.90;44.50;;;;;;4996209;28;20238;-54
2022/12/08 01:45:46;;;;;;;6.15;3.22;;;7.90;44.50;;;;;;4996246;28;20663;-54
2022/12/08 01:48:25;;;;;;;4.25;3.83;;;8.00;44.50;;;;;;4996368;28;20211;-54
2022/12/08 01:50:54;;;;;;;6.15;3.20;;;8.00;44.30;;;;;;4996257;28;20175;-54
2022/12/08 01:53:27;;;;;;;6.05;3.53;;;7.90;44.40;;;;;;4996223;28;20187;-54
2022/12/08 01:55:58;;;;;;;6.07;3.67;;;7.90;44.50;;;;;;4996101;28;20202;-54
2022/12/08 01:58:35;;;;;;;6.18;4.25;;;7.90;44.30;;;;;;4996446;28;20185;-53
2022/12/08 02:01:01;;;;;;;5.53;4.05;;;7.80;44.10;;;;;;4995999;28;20169;-54
2022/12/08 02:03:48;;;;;;;6.30;3.37;;;7.80;44.30;;;;;;4995792;28;20237;-54
2022/12/08 02:06:16;;;;;;;6.00;3.90;;;7.80;44.20;;;;;;4995537;28;20455;-54
2022/12/08 02:08:42;;;;;;;11.23;4.88;;;7.70;44.40;;;;;;4995883;28;20198;-53
2022/12/08 02:11:10;;;;;;;4.53;3.75;;;7.70;44.30;;;;;;4996173;28;20202;-54
2022/12/08 02:13:36;;;;;;;4.70;4.07;;;7.80;44.20;;;;;;4995589;28;20266;-53
2022/12/08 02:16:49;;;;;;;10.00;5.00;;;7.70;44.30;;;;;;4995566;28;20203;-53
2022/12/08 02:19:45;;;;;;;7.30;5.18;;;7.70;44.30;;;;;;4995872;28;20171;-54
2022/12/08 02:22:24;;;;;;;9.32;3.88;;;7.60;44.60;;;;;;4995507;28;20634;-54
2022/12/08 02:25:07;;;;;;;5.95;4.85;;;7.60;44.70;;;;;;4995724;28;20167;-54
2022/12/08 02:27:54;;;;;;;5.70;4.43;;;7.60;44.60;;;;;;4995663;28;20202;-54
2022/12/08 02:30:52;;;;;;;8.38;4.72;;;7.60;44.50;;;;;;4995520;28;20175;-52
2022/12/08 02:33:27;;;;;;;6.57;3.85;;;7.50;44.50;;;;;;4994042;28;20218;-54
2022/12/08 02:36:04;;;;;;;7.03;5.60;;;7.50;44.70;;;;;;4995451;28;20221;-54
2022/12/08 02:38:50;;;;;;;6.68;4.57;;;7.40;44.60;;;;;;4995746;28;20167;-54
2022/12/08 02:41:16;;;;;;;10.27;5.63;;;7.40;44.60;;;;;;4984056;28;20183;-54
2022/12/08 02:43:52;;;;;;;6.80;5.90;;;7.50;44.70;;;;;;4995044;28;20167;-54
2022/12/08 02:46:33;;;;;;;7.80;5.43;;;7.50;44.80;;;;;;4994714;28;20416;-54
2022/12/08 02:48:59;;;;;;;10.13;6.00;;;7.50;44.70;;;;;;4995522;28;20171;-54
2022/12/08 02:51:25;;;;;;;6.85;5.97;;;7.50;44.70;;;;;;4995346;28;20242;-54
2022/12/08 02:53:52;;;;;;;8.93;5.50;;;7.50;44.60;;;;;;4994905;28;20175;-54
2022/12/08 02:56:17;;;;;;;9.77;5.43;;;7.50;44.60;;;;;;4994990;28;20238;-54
2022/12/08 02:58:49;;;;;;;7.83;5.47;;;7.50;44.80;;;;;;4995113;28;20261;-54
2022/12/08 03:01:21;;;;;;;8.18;5.60;;;7.50;44.70;;;;;;4995119;28;20191;-54
2022/12/08 03:04:25;;;;;;;10.07;5.45;;;7.50;44.70;;;;;;4994967;28;20183;-54
2022/12/08 03:07:23;;;;;;;8.63;4.90;;;7.50;44.90;;;;;;4994311;28;20656;-54
2022/12/08 03:10:12;;;;;;;12.18;6.32;;;7.50;44.90;;;;;;4995160;28;20320;-54
2022/12/08 03:13:06;;;;;;;8.43;6.57;;;7.60;44.70;;;;;;4994563;28;20186;-54
2022/12/08 03:15:34;;;;;;;7.80;5.90;;;7.60;44.80;;;;;;4992384;28;20286;-54
2022/12/08 03:17:59;;;;;;;7.40;5.63;;;7.60;44.80;;;;;;4994733;28;20190;-54
2022/12/08 03:20:28;;;;;;;11.43;5.93;;;7.60;44.50;;;;;;4994648;28;20179;-53
2022/12/08 03:22:56;;;;;;;7.95;6.00;;;7.60;44.50;;;;;;4994305;28;20319;-54
2022/12/08 03:25:26;;;;;;;8.85;5.88;;;7.60;44.60;;;;;;4994664;28;20183;-54
2022/12/08 03:27:52;;;;;;;9.88;5.75;;;7.60;44.60;;;;;;4994486;28;20207;-54
2022/12/08 03:30:18;;;;;;;7.70;5.47;;;7.70;44.80;;;;;;4994510;28;20171;-54
2022/12/08 03:33:00;;;;;;;11.47;6.27;;;7.70;44.90;;;;;;4994484;28;20633;-54
2022/12/08 03:35:30;;;;;;;8.93;6.82;;;7.70;44.90;;;;;;4994325;28;20424;-53
2022/12/08 03:38:10;;;;;;;7.63;6.28;;;7.70;44.70;;;;;;4994504;28;20645;-53
2022/12/08 03:40:37;;;;;;;10.75;5.82;;;7.70;44.60;;;;;;4994379;28;20175;-54
2022/12/08 03:43:02;;;;;;;9.38;6.28;;;7.70;44.40;;;;;;4993981;28;20171;-54
2022/12/08 03:45:28;;;;;;;9.30;5.40;;;7.70;44.30;;;;;;4994197;28;20178;-54
2022/12/08 03:47:54;;;;;;;9.90;5.57;;;7.80;44.30;;;;;;4994140;28;20524;-54
2022/12/08 03:50:20;;;;;;;8.20;6.10;;;7.70;44.20;;;;;;4994082;28;20186;-53
2022/12/08 03:52:45;;;;;;;8.20;5.30;;;7.80;44.20;;;;;;4994116;28;20178;-52
2022/12/08 03:55:11;;;;;;;7.30;4.20;;;7.70;44.00;;;;;;4993941;28;20194;-53
2022/12/08 03:57:37;;;;;;;8.80;6.13;;;7.70;44.30;;;;;;4992939;28;20202;-54
2022/12/08 04:00:05;;;;;;;8.03;6.17;;;7.70;44.30;;;;;;4993979;28;20175;-54
2022/12/08 04:02:31;;;;;;;10.80;6.55;;;7.80;44.20;;;;;;4993590;28;20649;-54
2022/12/08 04:04:56;;;;;;;7.90;5.90;;;7.80;44.40;;;;;;4994089;28;20318;-54
2022/12/08 04:07:22;;;;;;;7.63;4.77;;;7.80;44.30;;;;;;4993578;28;20215;-54
2022/12/08 04:09:48;;;;;;;8.77;5.87;;;7.70;44.20;;;;;;4993778;28;20182;-54
2022/12/08 04:12:13;;;;;;;9.97;5.63;;;7.80;44.20;;;;;;4993766;28;20187;-54
2022/12/08 04:14:39;;;;;;;6.50;5.40;;;7.80;44.10;;;;;;4993886;28;20291;-54
2022/12/08 04:17:05;;;;;;;7.40;6.00;;;7.80;44.20;;;;;;4993550;28;20209;-54
2022/12/08 04:19:30;;;;;;;6.43;4.97;;;7.80;44.20;;;;;;4993488;28;20181;-54
2022/12/08 04:21:56;;;;;;;8.43;5.77;;;7.80;44.40;;;;;;4993270;28;20278;-51
2022/12/08 04:24:22;;;;;;;6.60;5.20;;;7.80;44.30;;;;;;4993384;28;20192;-54
2022/12/08 04:26:49;;;;;;;9.83;6.07;;;7.80;44.30;;;;;;4993524;28;20205;-54
2022/12/08 04:29:15;;;;;;;9.30;5.88;;;7.80;44.40;;;;;;4993285;28;20668;-54
2022/12/08 04:31:41;;;;;;;12.33;6.73;;;7.80;44.40;;;;;;4993454;28;20175;-54
2022/12/08 04:34:07;;;;;;;11.47;6.90;;;7.80;44.40;;;;;;4993316;28;20900;-53
2022/12/08 04:36:33;;;;;;;7.55;4.43;;;7.80;44.50;;;;;;4993112;28;20517;-54
2022/12/08 04:38:59;;;;;;;7.37;5.10;;;7.90;44.60;;;;;;4993232;28;20262;-53
2022/12/08 04:41:25;;;;;;;8.97;5.97;;;7.90;44.50;;;;;;4993118;28;20183;-54
2022/12/08 04:43:50;;;;;;;7.67;4.90;;;7.90;44.60;;;;;;4992750;28;20413;-54
2022/12/08 04:46:16;;;;;;;10.47;5.87;;;7.90;44.70;;;;;;4993241;28;20438;-54
2022/12/08 04:48:42;;;;;;;8.50;5.60;;;7.90;44.80;;;;;;4992905;28;20295;-54
2022/12/08 04:51:17;;;;;;;9.20;5.43;;;7.90;44.70;;;;;;4992975;28;20275;-54
2022/12/08 04:53:44;;;;;;;9.95;6.40;;;7.90;44.80;;;;;;4992831;28;20580;-54
2022/12/08 04:56:17;;;;;;;5.80;5.07;;;7.90;44.80;;;;;;4992637;28;20747;-54
2022/12/08 04:58:43;;;;;;;7.80;5.78;;;7.90;45.00;;;;;;4992850;28;20808;-54
2022/12/08 05:01:09;;;;;;;9.07;5.07;;;7.90;45.00;;;;;;4992950;28;20178;-54
2022/12/08 05:03:34;;;;;;;9.82;6.25;;;7.90;45.10;;;;;;4992854;28;20410;-54
2022/12/08 05:06:01;;;;;;;8.50;6.00;;;7.90;45.00;;;;;;4992729;28;20210;-54
2022/12/08 05:08:27;;;;;;;7.85;5.25;;;7.90;45.10;;;;;;4992364;28;20215;-54
2022/12/08 05:10:53;;;;;;;7.55;5.50;;;7.90;45.00;;;;;;4992640;28;20313;-54
2022/12/08 05:13:18;;;;;;;7.70;5.57;;;8.00;45.10;;;;;;4992925;28;20262;-54
2022/12/08 05:15:44;;;;;;;7.47;5.43;;;8.00;45.00;;;;;;4992526;28;20493;-54
2022/12/08 05:18:10;;;;;;;10.23;5.70;;;7.90;45.20;;;;;;4992764;28;20194;-54
2022/12/08 05:20:36;;;;;;;7.20;5.53;;;7.90;45.40;;;;;;4992904;28;20333;-53
2022/12/08 05:23:02;;;;;;;8.73;6.07;;;7.90;45.20;;;;;;4992468;28;20848;-52
2022/12/08 05:25:27;;;;;;;9.70;6.32;;;7.90;45.40;;;;;;4992258;28;20714;-52
2022/12/08 05:27:53;;;;;;;8.63;5.80;;;7.90;45.50;;;;;;4992344;28;20238;-54
2022/12/08 05:30:19;;;;;;;10.90;7.47;;;7.80;45.50;;;;;;4992521;28;20430;-54
2022/12/08 05:32:45;;;;;;;11.33;6.27;;;7.80;45.40;;;;;;4992243;28;20171;-54
2022/12/08 05:35:10;;;;;;;7.80;6.03;;;7.90;45.50;;;;;;4992436;28;20410;-54
2022/12/08 05:37:36;;;;;;;8.90;5.83;;;7.90;45.50;;;;;;4992423;28;20303;-54
2022/12/08 05:40:03;;;;;;;10.60;6.57;;;7.80;45.40;;;;;;4992400;28;20262;-54
2022/12/08 05:42:28;;;;;;;7.53;5.80;;;7.90;45.30;;;;;;4992147;28;20895;-54
2022/12/08 05:44:54;;;;;;;8.17;5.63;;;7.90;45.30;;;;;;4992359;28;20184;-54
2022/12/08 05:47:20;;;;;;;10.20;6.90;;;7.90;45.20;;;;;;4992238;28;20213;-53
2022/12/08 05:49:45;;;;;;;8.17;6.03;;;7.80;45.80;;;;;;4992346;28;20187;-54
2022/12/08 05:52:11;;;;;;;6.50;5.10;;;7.80;45.30;;;;;;4992142;28;20203;-54
2022/12/08 05:54:37;;;;;;;9.80;6.33;;;7.80;45.30;;;;;;4992583;28;20211;-54
2022/12/08 05:57:03;;;;;;;7.80;5.00;;;7.80;45.30;;;;;;4992055;28;20246;-54
2022/12/08 05:59:28;;;;;;;7.70;5.43;;;7.70;45.40;;;;;;4992482;28;20481;-53
2022/12/08 06:01:54;;;;;;;8.60;5.67;;;7.70;45.40;;;;;;4992265;28;20187;-53
2022/12/08 06:04:21;;;;;;;7.97;6.17;;;7.70;45.50;;;;;;4992373;28;20183;-54
2022/12/08 06:06:46;;;;;;;7.03;6.18;;;7.70;45.50;;;;;;4991999;28;20696;-53
2022/12/08 06:09:12;;;;;;;8.57;5.40;;;7.70;45.50;;;;;;4992122;28;20190;-52
2022/12/08 06:11:38;;;;;;;8.33;5.97;;;7.60;45.40;;;;;;4992019;28;20411;-55
2022/12/08 06:14:04;;;;;;;11.30;7.53;;;7.60;45.40;;;;;;4992011;28;20402;-54
2022/12/08 06:16:30;;;;;;;10.97;6.37;;;7.60;45.40;;;;;;4992312;28;20204;-54
2022/12/08 06:18:56;;;;;;;7.70;5.10;;;7.60;45.50;;;;;;4992052;28;20222;-54
2022/12/08 06:21:22;;;;;;;8.50;5.82;;;7.50;45.60;;;;;;4994338;28;20425;-54
2022/12/08 06:23:50;;;;;;;6.25;4.50;;;7.50;45.60;;;;;;4995559;28;20183;-54
2022/12/08 06:26:17;;;;;;;9.15;5.90;;;7.50;45.60;;;;;;4995738;28;20253;-54
2022/12/08 06:28:42;;;;;;;8.32;5.88;;;7.60;45.60;;;;;;4995452;28;20230;-54
2022/12/08 06:31:12;;;;;;;8.43;6.57;;;7.60;45.60;;;;;;4995498;28;20176;-54
2022/12/08 06:33:38;;;;;;;10.65;6.40;;;7.50;45.40;;;;;;4995172;28;20469;-54
2022/12/08 06:36:05;;;;;;;8.27;5.43;;;7.50;45.40;;;;;;4995637;28;20195;-54
2022/12/08 06:38:31;;;;;;;11.30;6.68;;;7.50;45.40;;;;;;4995158;28;20505;-53
2022/12/08 06:40:58;;;;;;;8.40;6.20;;;7.50;45.50;;;;;;4995557;28;20214;-54
2022/12/08 06:43:25;;;;;;;7.88;6.20;;;7.50;45.50;;;;;;4995039;28;20498;-53
2022/12/08 06:45:51;;;;;;;12.15;7.75;;;7.50;45.50;;;;;;4995263;28;20265;-53
2022/12/08 06:48:17;;;;;;;9.10;6.22;;;7.60;45.60;;;;;;4995363;28;20629;-54
2022/12/08 06:50:44;;;;;;;10.70;5.63;;;7.60;45.50;;;;;;4995168;28;20215;-52
2022/12/08 06:53:14;;;;;;;8.48;6.35;;;7.60;45.40;;;;;;4994776;28;20168;-54
2022/12/08 06:55:49;;;;;;;9.80;6.55;;;7.70;45.50;;;;;;4995063;28;20214;-52
2022/12/08 06:58:15;;;;;;;12.48;7.35;;;7.70;45.40;;;;;;4995008;28;20676;-53
2022/12/08 07:00:42;;;;;;;9.17;7.23;;;7.70;45.40;;;;;;4995066;28;20190;-54
2022/12/08 07:03:08;;;;;;;11.23;7.28;;;7.70;45.40;;;;;;4994982;28;20827;-52
2022/12/08 07:05:35;;;;;;;8.40;6.95;;;7.80;45.40;;;;;;4994724;28;20203;-54
2022/12/08 07:08:01;;;;;;;9.65;7.35;;;7.80;45.20;;;;;;4995065;28;20756;-54
2022/12/08 07:10:27;;;;;;;9.60;6.80;;;7.70;45.20;;;;;;4994855;28;20763;-54
2022/12/08 07:12:53;;;;;;;8.73;6.32;;;7.70;45.30;;;;;;4994544;28;20561;-54
2022/12/08 07:15:19;;;;;;;8.90;6.60;;;7.70;45.40;;;;;;4994621;28;20206;-54
2022/12/08 07:17:46;;;;;;;6.97;6.03;;;7.70;45.50;;;;;;4994964;28;20213;-54
2022/12/08 07:20:11;;;;;;;8.38;6.75;;;7.70;45.50;;;;;;4994820;28;20190;-54
2022/12/08 07:22:37;;;;;;;7.57;5.73;;;7.70;45.50;;;;;;4994660;28;20171;-54
2022/12/08 07:25:03;;;;;;;9.30;6.57;;;7.70;45.50;;;;;;4994723;28;20433;-54
2022/12/08 07:27:29;;;;;;;8.65;5.88;;;7.70;45.40;;;;;;4994367;28;20804;-54
2022/12/08 07:29:55;;;;;;;9.67;6.73;;;7.70;45.40;;;;;;4994492;28;20259;-55
2022/12/08 07:32:20;;;;;;;9.00;6.23;;;7.70;45.60;;;;;;4994182;28;20267;-54
2022/12/08 07:34:46;;;;;;;7.87;5.77;;;7.70;45.60;;;;;;4994346;28;20182;-54
2022/12/08 07:37:12;;;;;;;7.97;6.37;;;7.80;45.50;;;;;;4994427;28;20231;-54
2022/12/08 07:39:37;;;;;;;11.60;6.13;;;7.80;45.50;;;;;;4994531;28;20202;-54
2022/12/08 07:42:03;;;;;;;7.80;6.30;;;7.80;45.30;;;;;;4994131;28;20639;-54
2022/12/08 07:44:29;;;;;;;8.40;6.50;;;7.80;45.20;;;;;;4994230;28;20180;-53
2022/12/08 07:46:55;;;;;;;9.97;6.87;;;7.80;45.30;;;;;;4994192;28;20557;-52
2022/12/08 07:49:21;;;;;;;7.63;6.20;;;7.80;45.30;;;;;;4994103;28;20889;-53
2022/12/08 07:51:46;;;;;;;11.47;8.10;;;7.90;45.20;;;;;;4994046;28;20541;-52
2022/12/08 07:54:12;;;;;;;10.87;7.90;;;7.80;45.10;;;;;;4993908;28;20895;-54
2022/12/08 07:56:38;;;;;;;11.30;7.83;;;7.90;45.30;;;;;;4993678;28;20207;-54
2022/12/08 07:59:04;;;;;;;9.73;7.70;;;7.80;45.10;;;;;;4993953;28;20510;-54
2022/12/08 08:01:31;;;;;;;10.80;7.60;;;7.80;45.10;;;;;;4993830;28;20193;-54
2022/12/08 08:04:03;;;;;;;7.28;5.65;;;7.90;45.40;;;;;;4993797;28;20187;-52
2022/12/08 08:06:29;;;;;;;8.38;6.55;;;7.90;45.30;;;;;;4993817;28;20208;-54
2022/12/08 08:08:55;;;;;;;12.40;7.85;;;7.90;45.20;;;;;;4993546;28;20295;-54
2022/12/08 08:11:21;;;;;;;9.67;7.90;;;8.00;46.00;;;;;;4993945;28;20262;-53
2022/12/08 08:13:47;;;;;;;9.00;7.33;;;8.00;45.30;;;;;;4993320;28;20242;-53
2022/12/08 08:16:12;;;;;;;8.17;6.20;;;8.00;45.20;;;;;;4993422;28;20438;-54
2022/12/08 08:18:39;;;;;;;8.30;6.63;;;8.10;45.30;;;;;;4993675;28;20417;-54
2022/12/08 08:21:05;;;;;;;11.68;7.75;;;8.10;45.40;;;;;;4993723;28;20191;-54
2022/12/08 08:23:32;;;;;;;11.05;7.28;;;8.10;45.30;;;;;;4993384;28;20190;-54
2022/12/08 08:26:00;;;;;;;15.43;8.25;;;8.10;45.30;;;;;;4993582;28;20199;-53
2022/12/08 08:28:26;;;;;;;12.68;7.47;;;8.20;45.20;;;;;;4993284;28;20758;-54
2022/12/08 08:30:52;;;;;;;14.57;7.63;;;8.20;45.10;;;;;;4992315;28;20533;-53
2022/12/08 08:33:18;;;;;;;8.13;6.50;;;8.20;45.00;;;;;;4993341;28;20259;-54
2022/12/08 08:35:43;;;;;;;10.77;6.77;;;8.20;45.00;;;;;;4993283;28;20545;-53
2022/12/08 08:38:11;;;;;;;9.95;7.07;;;8.20;44.90;;;;;;4992990;28;20199;-54
2022/12/08 08:40:36;;;;;;;10.20;7.97;;;8.20;44.70;;;;;;4993258;28;20271;-54
2022/12/08 08:43:03;;;;;;;9.63;7.73;;;8.20;44.60;;;;;;4992493;28;20198;-54
2022/12/08 08:45:29;;;;;;;14.63;8.30;;;8.30;44.70;;;;;;4992954;28;20178;-54
2022/12/08 08:47:55;;;;;;;18.60;8.17;;;8.20;44.60;;;;;;4992943;28;20207;-54
2022/12/08 08:50:21;;;;;;;11.07;7.30;;;8.30;44.60;;;;;;4992846;28;20441;-54
2022/12/08 08:52:47;;;;;;;14.40;8.13;;;8.30;44.50;;;;;;4992719;28;20395;-54
2022/12/08 08:55:13;;;;;;;11.63;8.20;;;8.30;44.50;;;;;;4992740;28;20928;-53
2022/12/08 08:57:39;;;;;;;8.13;6.80;;;8.30;44.30;;;;;;4992706;28;20203;-54
2022/12/08 09:00:06;;;;;;;10.30;7.33;;;8.20;44.10;;;;;;4993098;28;20179;-54
2022/12/08 09:02:32;;;;;;;10.95;8.10;;;8.20;44.20;;;;;;4992794;28;20186;-54
2022/12/08 09:04:58;;;;;;;10.30;8.47;;;8.20;44.40;;;;;;4993428;28;20687;-54
2022/12/08 09:07:24;;;;;;;10.60;8.40;;;8.20;44.50;;;;;;4992796;28;20528;-52
2022/12/08 09:09:49;;;;;;;10.10;7.97;;;8.20;44.10;;;;;;4992661;28;20735;-54
2022/12/08 09:22:22;;;;;;;10.63;8.43;;;8.40;44.50;;;;;;4992336;28;20627;-54
2022/12/08 09:24:48;;;;;;;9.27;6.50;;;8.50;44.70;;;;;;4992481;28;20174;-54
2022/12/08 09:27:14;;;;;;;12.70;8.10;;;8.60;44.60;;;;;;4992447;28;20218;-54
2022/12/08 09:29:39;;;;;;;13.23;9.23;;;8.80;44.10;;;;;;4992833;28;20471;-53
2022/12/08 09:32:05;;;;;;;11.83;8.10;;;8.90;43.60;;;;;;4992533;28;20423;-53
2022/12/08 09:34:31;;;;;;;9.93;7.43;;;9.10;43.50;;;;;;4992505;28;20637;-53
2022/12/08 09:36:57;;;;;;;11.73;7.80;;;9.50;41.50;;;;;;4992238;28;20430;-54
2022/12/08 09:39:23;;;;;;;10.30;8.23;;;9.90;41.60;;;;;;4992623;28;20257;-52
2022/12/08 09:41:55;;;;;;;10.80;9.17;;;10.80;40.30;;;;;;4992231;28;20548;-54
2022/12/08 09:44:43;;;;;;;11.27;7.63;;;11.50;38.80;;;;;;4992487;28;20449;-55
2022/12/08 09:47:20;;;;;;;11.23;8.55;;;12.40;36.80;;;;;;4992172;28;20227;-54
2022/12/08 09:50:10;;;;;;;8.85;7.28;;;12.60;37.10;;;;;;4992357;28;20178;-54
2022/12/08 09:52:58;;;;;;;8.00;7.13;;;12.50;35.30;;;;;;4992320;28;20652;-54
2022/12/08 09:55:37;;;;;;;7.97;6.10;;;12.40;35.50;;;;;;4992517;28;20685;-55
2022/12/08 09:58:11;;;;;;;19.13;7.05;;;12.40;36.60;;;;;;4996481;28;20180;-54
2022/12/08 10:00:37;;;;;;;8.77;7.28;;;13.20;35.30;;;;;;4996063;28;20195;-55
2022/12/08 10:03:02;;;;;;;8.03;6.17;;;13.80;32.90;;;;;;4995922;28;20214;-53
2022/12/08 10:05:33;;;;;;;9.20;6.50;;;14.20;32.90;;;;;;4995885;28;20179;-54
2022/12/08 10:08:18;;;;;;;7.30;6.05;;;14.60;31.10;;;;;;4995979;28;20295;-52
2022/12/08 10:10:58;;;;;;;9.75;6.75;;;14.80;31.30;;;;;;4995813;28;20164;-53
2022/12/08 10:13:44;;;;;;;9.52;7.05;;;15.00;31.20;;;;;;4995731;28;20181;-53
2022/12/08 10:16:17;;;;;;;7.75;6.85;;;14.90;31.80;;;;;;4996044;28;20249;-53
2022/12/08 10:18:44;;;;;;;8.60;6.68;;;14.70;31.30;;;;;;4995899;28;20175;-54
2022/12/08 10:21:17;;;;;;;7.22;6.30;;;14.50;31.20;;;;;;4995682;28;20564;-54
2022/12/08 10:23:51;;;;;;;7.60;5.90;;;14.30;31.70;;;;;;4995580;28;20166;-54
2022/12/08 10:26:19;;;;;;;16.13;8.13;;;14.10;32.60;;;;;;4995626;28;20556;-54
2022/12/08 10:28:45;;;;;;;7.40;6.15;;;14.00;33.10;;;;;;4995595;28;20199;-54
2022/12/08 10:31:17;;;;;;;7.30;5.35;;;13.40;31.70;;;;;;4995631;28;20550;-54
2022/12/08 10:33:44;;;;;;;10.15;6.35;;;12.80;33.10;;;;;;4995439;28;20171;-54
2022/12/08 10:36:10;;;;;;;10.65;7.20;;;12.30;33.80;;;;;;4995749;28;20195;-54
2022/12/08 10:38:38;;;;;;;10.07;6.90;;;12.00;35.00;;;;;;4995829;28;20175;-54
2022/12/08 10:41:18;;;;;;;10.48;7.30;;;11.70;35.20;;;;;;4995616;28;20182;-55
2022/12/08 10:43:48;;;;;;;7.72;6.10;;;11.60;35.90;;;;;;4995458;28;20254;-55
2022/12/08 10:46:25;;;;;;;8.02;7.20;;;11.30;35.40;;;;;;4995153;28;20195;-54
2022/12/08 10:48:52;;;;;;;7.75;6.35;;;11.10;36.10;;;;;;4995114;28;20195;-52
2022/12/08 10:51:38;;;;;;;11.18;8.25;;;10.80;36.10;;;;;;4995257;28;20184;-53
2022/12/08 10:54:07;;;;;;;9.13;6.30;;;10.70;36.10;;;;;;4995086;28;20542;-53
2022/12/08 10:56:33;;;;;;;9.40;6.75;;;10.50;36.70;;;;;;4994936;28;20218;-53
2022/12/08 10:59:11;;;;;;;7.37;5.63;;;10.60;36.80;;;;;;4995133;28;20179;-53
2022/12/08 11:01:39;;;;;;;8.48;5.70;;;10.50;36.80;;;;;;4994856;28;20687;-54
2022/12/08 11:04:14;;;;;;;10.05;6.13;;;10.60;36.80;;;;;;4994722;28;20183;-54
2022/12/08 11:06:41;;;;;;;7.78;5.18;;;10.70;36.90;;;;;;4994492;28;20537;-55
2022/12/08 11:09:24;;;;;;;8.75;6.15;;;10.80;36.60;;;;;;4994674;28;20210;-53
2022/12/08 11:11:54;;;;;;;6.80;5.60;;;11.00;36.50;;;;;;4995003;28;20183;-55
2022/12/08 11:14:28;;;;;;;8.05;5.35;;;11.10;35.90;;;;;;4994729;28;20176;-54
2022/12/08 11:17:09;;;;;;;11.40;6.35;;;11.10;35.60;;;;;;4994703;28;20213;-54
2022/12/08 11:19:43;;;;;;;6.10;4.78;;;11.00;35.40;;;;;;4994649;28;20175;-54
2022/12/08 11:22:39;;;;;;;10.10;6.50;;;10.90;35.00;;;;;;4994345;28;20159;-54
2022/12/08 11:25:24;;;;;;;11.05;7.03;;;10.80;35.20;;;;;;4994568;28;20171;-53
2022/12/08 11:28:00;;;;;;;6.65;5.40;;;10.60;36.10;;;;;;4994368;28;20195;-55
2022/12/08 11:30:45;;;;;;;7.32;5.95;;;10.60;36.10;;;;;;4994572;28;20684;-54
2022/12/08 11:33:15;;;;;;;9.20;6.13;;;10.60;36.50;;;;;;4994200;28;20172;-55
2022/12/08 11:35:44;;;;;;;6.72;5.53;;;10.50;36.70;;;;;;4994580;28;20191;-55
2022/12/08 11:38:15;;;;;;;10.32;6.50;;;10.50;36.00;;;;;;4994273;28;20205;-54
2022/12/08 11:40:43;;;;;;;5.88;5.28;;;10.50;35.60;;;;;;4994499;28;20183;-53
2022/12/08 11:43:32;;;;;;;8.55;5.80;;;10.50;36.00;;;;;;4994014;28;20178;-55
2022/12/08 11:46:11;;;;;;;9.52;6.60;;;10.50;36.30;;;;;;4994217;28;20222;-54
2022/12/08 11:48:49;;;;;;;7.50;4.90;;;10.40;36.10;;;;;;4994244;28;20202;-52
2022/12/08 11:51:56;;;;;;;6.43;4.72;;;10.40;36.20;;;;;;4994384;28;20167;-55
2022/12/08 11:54:43;;;;;;;7.18;5.07;;;10.40;36.20;;;;;;4994089;28;20174;-55
2022/12/08 11:57:15;;;;;;;6.32;4.40;;;10.40;36.40;;;;;;4993773;28;20221;-55
2022/12/08 11:59:48;;;;;;;4.88;3.55;;;10.30;36.50;;;;;;4994261;28;20250;-55
2022/12/08 12:02:18;;;;;;;5.30;4.80;;;10.30;35.20;;;;;;4993899;28;20159;-55
2022/12/08 12:04:51;;;;;;;7.32;3.80;;;10.20;35.50;;;;;;4993976;28;20551;-54
2022/12/08 12:07:35;;;;;;;5.78;4.35;;;10.10;35.60;;;;;;4993625;28;20216;-55
2022/12/08 12:10:07;;;;;;;4.93;3.92;;;10.20;35.80;;;;;;4993973;28;20294;-54
2022/12/08 12:12:58;;;;;;;5.43;4.15;;;10.30;35.90;;;;;;4993807;28;20181;-54
2022/12/08 12:15:51;;;;;;;8.00;4.57;;;10.50;36.00;;;;;;4993490;28;20819;-55
2022/12/08 12:18:28;;;;;;;5.45;4.18;;;10.80;35.10;;;;;;4992667;28;20214;-55
2022/12/08 12:21:23;;;;;;;5.53;4.43;;;11.10;34.30;;;;;;4993584;28;20195;-54
2022/12/08 12:23:56;;;;;;;5.55;4.00;;;11.40;33.70;;;;;;4993475;28;20180;-55
2022/12/08 12:26:28;;;;;;;6.95;3.85;;;12.10;33.50;;;;;;4993372;28;20191;-53
2022/12/08 12:29:00;;;;;;;8.02;3.78;;;12.60;33.50;;;;;;4992251;28;20215;-54
2022/12/08 12:31:29;;;;;;;4.40;3.83;;;13.50;33.20;;;;;;4993181;28;20167;-55
2022/12/08 12:34:24;;;;;;;7.68;4.68;;;14.40;30.00;;;;;;4993133;28;20230;-55
2022/12/08 12:36:53;;;;;;;7.97;3.95;;;15.00;29.20;;;;;;4992828;28;20375;-55
2022/12/08 12:39:23;;;;;;;5.03;3.85;;;15.70;28.80;;;;;;4993163;28;20175;-55
2022/12/08 12:42:06;;;;;;;4.68;4.10;;;16.30;25.50;;;;;;4993198;28;20173;-54
2022/12/08 12:44:32;;;;;;;5.05;4.15;;;15.60;25.50;;;;;;4993072;28;20168;-55
2022/12/08 12:47:01;;;;;;;7.70;3.70;;;15.70;27.70;;;;;;4992811;28;20198;-55
2022/12/08 12:49:42;;;;;;;4.50;3.90;;;15.90;26.90;;;;;;4993053;28;20225;-53
2022/12/08 12:52:14;;;;;;;6.05;3.67;;;16.40;27.10;;;;;;4993116;28;20179;-55
2022/12/08 12:55:03;;;;;;;7.05;4.13;;;16.10;25.30;;;;;;4991572;28;20637;-55
2022/12/08 12:57:51;;;;;;;6.10;3.63;;;16.00;26.70;;;;;;4992518;28;20218;-54
2022/12/08 13:00:19;;;;;;;4.95;4.05;;;15.00;26.20;;;;;;4992832;28;20555;-53
2022/12/08 13:02:49;;;;;;;4.22;3.42;;;14.10;27.50;;;;;;4992696;28;20172;-54
2022/12/08 13:05:40;;;;;;;5.97;4.35;;;13.30;29.30;;;;;;4992698;28;20183;-54
2022/12/08 13:08:23;;;;;;;4.47;3.97;;;12.80;30.00;;;;;;4992542;28;20666;-55
2022/12/08 13:11:08;;;;;;;4.03;3.50;;;12.30;30.70;;;;;;4992962;28;20223;-54
2022/12/08 13:13:36;;;;;;;9.02;4.95;;;11.80;31.40;;;;;;4992619;28;20175;-55
2022/12/08 13:16:17;;;;;;;4.32;3.72;;;11.20;32.40;;;;;;4992508;28;20199;-54
2022/12/08 13:18:48;;;;;;;7.63;4.60;;;10.80;32.90;;;;;;4992975;28;20250;-54
2022/12/08 13:21:17;;;;;;;7.93;3.70;;;10.50;33.50;;;;;;4992753;28;20186;-54
2022/12/08 13:23:45;;;;;;;8.43;5.47;;;10.40;34.00;;;;;;4992485;28;20175;-53
2022/12/08 13:26:15;;;;;;;5.32;4.00;;;10.40;34.30;;;;;;4992492;28;20570;-55